sensor_id;sensor_type;location;lat;lon;timestamp;P1;durP1;ratioP1;P2;durP2;ratioP2
52057;SDS011;38063;53.210;6.504;2023-07-13T00:01:50;7.45;;;2.00;;
52057;SDS011;38063;53.210;6.504;2023-07-13T00:04:20;9.70;;;2.72;;
52057;SDS011;38063;53.210;6.504;2023-07-13T00:06:48;5.95;;;2.35;;
52057;SDS011;38063;53.210;6.504;2023-07-13T00:09:15;11.77;;;2.10;;
52057;SDS011;38063;53.210;6.504;2023-07-13T00:11:43;11.63;;;2.40;;
52057;SDS011;38063;53.210;6.504;2023-07-13T00:14:10;14.40;;;2.38;;
52057;SDS011;38063;53.210;6.504;2023-07-13T00:16:37;10.88;;;2.55;;
52057;SDS011;38063;53.210;6.504;2023-07-13T00:19:04;13.90;;;3.85;;
52057;SDS011;38063;53.210;6.504;2023-07-13T00:21:31;7.32;;;2.33;;
52057;SDS011;38063;53.210;6.504;2023-07-13T00:23:57;11.73;;;2.70;;
52057;SDS011;38063;53.210;6.504;2023-07-13T00:26:23;10.18;;;2.67;;
52057;SDS011;38063;53.210;6.504;2023-07-13T00:28:48;8.45;;;2.85;;
52057;SDS011;38063;53.210;6.504;2023-07-13T00:31:14;5.85;;;2.63;;
52057;SDS011;38063;53.210;6.504;2023-07-13T00:33:41;12.13;;;3.15;;
52057;SDS011;38063;53.210;6.504;2023-07-13T00:36:07;10.60;;;3.30;;
52057;SDS011;38063;53.210;6.504;2023-07-13T00:38:34;9.65;;;2.60;;
52057;SDS011;38063;53.210;6.504;2023-07-13T00:40:59;9.98;;;2.50;;
52057;SDS011;38063;53.210;6.504;2023-07-13T00:43:26;12.52;;;2.55;;
52057;SDS011;38063;53.210;6.504;2023-07-13T00:48:20;10.80;;;3.00;;
52057;SDS011;38063;53.210;6.504;2023-07-13T00:50:50;12.10;;;3.38;;
52057;SDS011;38063;53.210;6.504;2023-07-13T00:53:18;13.25;;;2.80;;
52057;SDS011;38063;53.210;6.504;2023-07-13T00:55:45;13.52;;;2.65;;
52057;SDS011;38063;53.210;6.504;2023-07-13T00:58:12;13.63;;;3.08;;
52057;SDS011;38063;53.210;6.504;2023-07-13T01:00:38;11.25;;;2.90;;
52057;SDS011;38063;53.210;6.504;2023-07-13T01:03:05;15.65;;;2.72;;
52057;SDS011;38063;53.210;6.504;2023-07-13T01:05:32;9.88;;;3.05;;
52057;SDS011;38063;53.210;6.504;2023-07-13T01:08:00;12.50;;;3.00;;
52057;SDS011;38063;53.210;6.504;2023-07-13T01:10:30;8.38;;;2.67;;
52057;SDS011;38063;53.210;6.504;2023-07-13T01:13:02;8.98;;;2.92;;
52057;SDS011;38063;53.210;6.504;2023-07-13T01:15:45;10.00;;;2.58;;
52057;SDS011;38063;53.210;6.504;2023-07-13T01:18:16;9.40;;;2.70;;
52057;SDS011;38063;53.210;6.504;2023-07-13T01:21:03;8.30;;;3.00;;
52057;SDS011;38063;53.210;6.504;2023-07-13T01:23:30;8.80;;;2.10;;
52057;SDS011;38063;53.210;6.504;2023-07-13T01:25:56;7.50;;;2.42;;
52057;SDS011;38063;53.210;6.504;2023-07-13T01:28:24;12.60;;;3.05;;
52057;SDS011;38063;53.210;6.504;2023-07-13T01:30:55;10.68;;;3.00;;
52057;SDS011;38063;53.210;6.504;2023-07-13T01:33:22;12.82;;;2.80;;
52057;SDS011;38063;53.210;6.504;2023-07-13T01:35:48;9.82;;;2.78;;
52057;SDS011;38063;53.210;6.504;2023-07-13T01:38:14;12.15;;;3.10;;
52057;SDS011;38063;53.210;6.504;2023-07-13T01:40:42;12.98;;;3.25;;
52057;SDS011;38063;53.210;6.504;2023-07-13T01:43:08;10.90;;;3.22;;
52057;SDS011;38063;53.210;6.504;2023-07-13T01:45:34;7.70;;;3.60;;
52057;SDS011;38063;53.210;6.504;2023-07-13T01:48:00;9.77;;;3.00;;
52057;SDS011;38063;53.210;6.504;2023-07-13T01:50:26;8.18;;;2.40;;
52057;SDS011;38063;53.210;6.504;2023-07-13T01:52:52;11.82;;;2.90;;
52057;SDS011;38063;53.210;6.504;2023-07-13T01:55:18;10.73;;;2.30;;
52057;SDS011;38063;53.210;6.504;2023-07-13T01:57:45;9.15;;;2.67;;
52057;SDS011;38063;53.210;6.504;2023-07-13T02:00:11;11.95;;;2.55;;
52057;SDS011;38063;53.210;6.504;2023-07-13T02:02:38;7.70;;;2.30;;
52057;SDS011;38063;53.210;6.504;2023-07-13T02:05:04;6.85;;;2.28;;
52057;SDS011;38063;53.210;6.504;2023-07-13T02:07:30;12.90;;;2.63;;
52057;SDS011;38063;53.210;6.504;2023-07-13T02:09:56;7.65;;;2.10;;
52057;SDS011;38063;53.210;6.504;2023-07-13T02:12:21;9.25;;;2.50;;
52057;SDS011;38063;53.210;6.504;2023-07-13T02:14:47;8.70;;;2.90;;
52057;SDS011;38063;53.210;6.504;2023-07-13T02:17:13;6.32;;;2.40;;
52057;SDS011;38063;53.210;6.504;2023-07-13T02:19:39;10.80;;;2.75;;
52057;SDS011;38063;53.210;6.504;2023-07-13T02:22:05;9.73;;;2.30;;
52057;SDS011;38063;53.210;6.504;2023-07-13T02:24:31;9.35;;;2.17;;
52057;SDS011;38063;53.210;6.504;2023-07-13T02:26:57;10.18;;;2.35;;
52057;SDS011;38063;53.210;6.504;2023-07-13T02:29:22;7.35;;;2.05;;
52057;SDS011;38063;53.210;6.504;2023-07-13T02:31:48;7.50;;;3.08;;
52057;SDS011;38063;53.210;6.504;2023-07-13T02:34:14;7.60;;;2.30;;
52057;SDS011;38063;53.210;6.504;2023-07-13T02:36:40;9.65;;;2.20;;
52057;SDS011;38063;53.210;6.504;2023-07-13T02:39:06;7.47;;;1.90;;
52057;SDS011;38063;53.210;6.504;2023-07-13T02:41:32;9.35;;;2.30;;
52057;SDS011;38063;53.210;6.504;2023-07-13T02:43:58;6.43;;;2.08;;
52057;SDS011;38063;53.210;6.504;2023-07-13T02:46:32;8.05;;;2.00;;
52057;SDS011;38063;53.210;6.504;2023-07-13T02:48:59;6.90;;;2.10;;
52057;SDS011;38063;53.210;6.504;2023-07-13T02:51:25;7.93;;;2.22;;
52057;SDS011;38063;53.210;6.504;2023-07-13T02:53:51;11.73;;;2.70;;
52057;SDS011;38063;53.210;6.504;2023-07-13T02:56:16;9.00;;;2.30;;
52057;SDS011;38063;53.210;6.504;2023-07-13T02:58:42;9.25;;;2.20;;
52057;SDS011;38063;53.210;6.504;2023-07-13T03:01:09;8.38;;;2.30;;
52057;SDS011;38063;53.210;6.504;2023-07-13T03:03:36;12.27;;;2.72;;
52057;SDS011;38063;53.210;6.504;2023-07-13T03:06:02;11.57;;;2.80;;
52057;SDS011;38063;53.210;6.504;2023-07-13T03:08:31;8.82;;;3.05;;
52057;SDS011;38063;53.210;6.504;2023-07-13T03:11:07;7.75;;;3.00;;
52057;SDS011;38063;53.210;6.504;2023-07-13T03:13:36;9.25;;;2.85;;
52057;SDS011;38063;53.210;6.504;2023-07-13T03:16:02;15.35;;;3.63;;
52057;SDS011;38063;53.210;6.504;2023-07-13T03:18:30;9.93;;;2.80;;
52057;SDS011;38063;53.210;6.504;2023-07-13T03:20:56;15.35;;;3.75;;
52057;SDS011;38063;53.210;6.504;2023-07-13T03:23:21;12.10;;;3.10;;
52057;SDS011;38063;53.210;6.504;2023-07-13T03:25:47;17.38;;;3.65;;
52057;SDS011;38063;53.210;6.504;2023-07-13T03:28:13;9.90;;;3.55;;
52057;SDS011;38063;53.210;6.504;2023-07-13T03:30:40;15.32;;;3.70;;
52057;SDS011;38063;53.210;6.504;2023-07-13T03:33:06;11.52;;;3.25;;
52057;SDS011;38063;53.210;6.504;2023-07-13T03:35:32;12.45;;;3.63;;
52057;SDS011;38063;53.210;6.504;2023-07-13T03:37:58;12.65;;;4.45;;
52057;SDS011;38063;53.210;6.504;2023-07-13T03:40:25;14.00;;;3.60;;
52057;SDS011;38063;53.210;6.504;2023-07-13T03:42:52;15.05;;;3.50;;
52057;SDS011;38063;53.210;6.504;2023-07-13T03:45:18;12.20;;;3.50;;
52057;SDS011;38063;53.210;6.504;2023-07-13T03:47:44;9.43;;;3.45;;
52057;SDS011;38063;53.210;6.504;2023-07-13T03:50:10;14.93;;;3.42;;
52057;SDS011;38063;53.210;6.504;2023-07-13T03:52:36;12.50;;;3.38;;
52057;SDS011;38063;53.210;6.504;2023-07-13T03:55:02;12.35;;;3.05;;
52057;SDS011;38063;53.210;6.504;2023-07-13T03:57:27;10.48;;;3.15;;
52057;SDS011;38063;53.210;6.504;2023-07-13T03:59:53;12.40;;;3.20;;
52057;SDS011;38063;53.210;6.504;2023-07-13T04:02:20;12.90;;;3.63;;
52057;SDS011;38063;53.210;6.504;2023-07-13T04:04:46;14.32;;;3.17;;
52057;SDS011;38063;53.210;6.504;2023-07-13T04:07:12;11.23;;;3.83;;
52057;SDS011;38063;53.210;6.504;2023-07-13T04:09:37;15.00;;;3.50;;
52057;SDS011;38063;53.210;6.504;2023-07-13T04:12:03;13.48;;;3.90;;
52057;SDS011;38063;53.210;6.504;2023-07-13T04:14:29;13.50;;;3.38;;
52057;SDS011;38063;53.210;6.504;2023-07-13T04:16:55;11.68;;;3.30;;
52057;SDS011;38063;53.210;6.504;2023-07-13T04:19:21;16.25;;;3.38;;
52057;SDS011;38063;53.210;6.504;2023-07-13T04:21:46;10.07;;;3.22;;
52057;SDS011;38063;53.210;6.504;2023-07-13T04:24:12;11.25;;;3.10;;
52057;SDS011;38063;53.210;6.504;2023-07-13T04:26:38;14.40;;;4.17;;
52057;SDS011;38063;53.210;6.504;2023-07-13T04:29:04;12.57;;;3.60;;
52057;SDS011;38063;53.210;6.504;2023-07-13T04:31:31;13.13;;;3.55;;
52057;SDS011;38063;53.210;6.504;2023-07-13T04:33:58;16.77;;;4.10;;
52057;SDS011;38063;53.210;6.504;2023-07-13T04:36:24;18.83;;;3.63;;
52057;SDS011;38063;53.210;6.504;2023-07-13T04:38:52;7.72;;;3.35;;
52057;SDS011;38063;53.210;6.504;2023-07-13T04:41:19;11.00;;;3.28;;
52057;SDS011;38063;53.210;6.504;2023-07-13T04:43:45;15.25;;;3.63;;
52057;SDS011;38063;53.210;6.504;2023-07-13T04:46:12;11.75;;;3.33;;
52057;SDS011;38063;53.210;6.504;2023-07-13T04:48:40;13.15;;;3.45;;
52057;SDS011;38063;53.210;6.504;2023-07-13T04:51:06;10.93;;;3.17;;
52057;SDS011;38063;53.210;6.504;2023-07-13T04:53:32;11.98;;;3.67;;
52057;SDS011;38063;53.210;6.504;2023-07-13T04:55:59;16.13;;;4.85;;
52057;SDS011;38063;53.210;6.504;2023-07-13T04:58:25;12.75;;;3.90;;
52057;SDS011;38063;53.210;6.504;2023-07-13T05:00:52;15.70;;;4.20;;
52057;SDS011;38063;53.210;6.504;2023-07-13T05:03:18;16.27;;;3.85;;
52057;SDS011;38063;53.210;6.504;2023-07-13T05:05:54;11.20;;;3.70;;
52057;SDS011;38063;53.210;6.504;2023-07-13T05:08:20;7.80;;;3.25;;
52057;SDS011;38063;53.210;6.504;2023-07-13T05:10:46;12.05;;;4.05;;
52057;SDS011;38063;53.210;6.504;2023-07-13T05:13:12;13.40;;;3.67;;
52057;SDS011;38063;53.210;6.504;2023-07-13T05:15:40;11.00;;;3.55;;
52057;SDS011;38063;53.210;6.504;2023-07-13T05:18:06;12.98;;;3.58;;
52057;SDS011;38063;53.210;6.504;2023-07-13T05:20:32;16.95;;;4.03;;
52057;SDS011;38063;53.210;6.504;2023-07-13T05:22:57;15.05;;;3.58;;
52057;SDS011;38063;53.210;6.504;2023-07-13T05:25:23;12.32;;;3.85;;
52057;SDS011;38063;53.210;6.504;2023-07-13T05:27:48;18.33;;;4.47;;
52057;SDS011;38063;53.210;6.504;2023-07-13T05:30:14;17.83;;;4.15;;
52057;SDS011;38063;53.210;6.504;2023-07-13T05:32:40;17.30;;;3.53;;
52057;SDS011;38063;53.210;6.504;2023-07-13T05:35:06;12.50;;;3.70;;
52057;SDS011;38063;53.210;6.504;2023-07-13T05:37:32;14.25;;;3.67;;
52057;SDS011;38063;53.210;6.504;2023-07-13T05:39:58;14.05;;;3.55;;
52057;SDS011;38063;53.210;6.504;2023-07-13T05:42:24;10.75;;;3.10;;
52057;SDS011;38063;53.210;6.504;2023-07-13T05:44:49;13.38;;;3.17;;
52057;SDS011;38063;53.210;6.504;2023-07-13T05:47:15;13.40;;;3.65;;
52057;SDS011;38063;53.210;6.504;2023-07-13T05:49:41;15.55;;;3.70;;
52057;SDS011;38063;53.210;6.504;2023-07-13T05:52:06;13.77;;;3.15;;
52057;SDS011;38063;53.210;6.504;2023-07-13T05:54:32;11.82;;;2.95;;
52057;SDS011;38063;53.210;6.504;2023-07-13T05:56:58;9.23;;;2.92;;
52057;SDS011;38063;53.210;6.504;2023-07-13T05:59:23;13.18;;;3.60;;
52057;SDS011;38063;53.210;6.504;2023-07-13T06:01:50;6.63;;;2.60;;
52057;SDS011;38063;53.210;6.504;2023-07-13T06:04:17;9.55;;;2.67;;
52057;SDS011;38063;53.210;6.504;2023-07-13T06:06:44;8.73;;;3.25;;
52057;SDS011;38063;53.210;6.504;2023-07-13T06:09:10;12.50;;;3.03;;
52057;SDS011;38063;53.210;6.504;2023-07-13T06:11:36;8.98;;;2.70;;
52057;SDS011;38063;53.210;6.504;2023-07-13T06:14:01;9.05;;;2.45;;
52057;SDS011;38063;53.210;6.504;2023-07-13T06:16:29;10.90;;;2.65;;
52057;SDS011;38063;53.210;6.504;2023-07-13T06:18:54;10.35;;;2.63;;
52057;SDS011;38063;53.210;6.504;2023-07-13T06:21:21;7.47;;;2.60;;
52057;SDS011;38063;53.210;6.504;2023-07-13T06:23:48;6.60;;;2.30;;
52057;SDS011;38063;53.210;6.504;2023-07-13T06:26:15;8.98;;;2.33;;
52057;SDS011;38063;53.210;6.504;2023-07-13T06:28:43;10.27;;;2.45;;
52057;SDS011;38063;53.210;6.504;2023-07-13T06:31:09;6.43;;;2.42;;
52057;SDS011;38063;53.210;6.504;2023-07-13T06:33:36;10.32;;;2.40;;
52057;SDS011;38063;53.210;6.504;2023-07-13T06:36:03;8.98;;;2.00;;
52057;SDS011;38063;53.210;6.504;2023-07-13T06:38:30;10.45;;;2.33;;
52057;SDS011;38063;53.210;6.504;2023-07-13T06:40:56;6.18;;;2.10;;
52057;SDS011;38063;53.210;6.504;2023-07-13T06:43:22;7.15;;;2.20;;
52057;SDS011;38063;53.210;6.504;2023-07-13T06:45:50;8.93;;;2.28;;
52057;SDS011;38063;53.210;6.504;2023-07-13T06:48:16;5.75;;;2.08;;
52057;SDS011;38063;53.210;6.504;2023-07-13T06:50:43;7.97;;;2.00;;
52057;SDS011;38063;53.210;6.504;2023-07-13T06:53:10;6.30;;;1.65;;
52057;SDS011;38063;53.210;6.504;2023-07-13T06:55:37;7.38;;;2.10;;
52057;SDS011;38063;53.210;6.504;2023-07-13T06:58:03;8.82;;;2.20;;
52057;SDS011;38063;53.210;6.504;2023-07-13T07:00:28;7.75;;;2.20;;
52057;SDS011;38063;53.210;6.504;2023-07-13T07:02:54;12.23;;;2.40;;
52057;SDS011;38063;53.210;6.504;2023-07-13T07:05:20;8.20;;;2.00;;
52057;SDS011;38063;53.210;6.504;2023-07-13T07:07:50;9.13;;;2.13;;
52057;SDS011;38063;53.210;6.504;2023-07-13T07:10:17;8.48;;;2.25;;
52057;SDS011;38063;53.210;6.504;2023-07-13T07:12:43;7.72;;;1.92;;
52057;SDS011;38063;53.210;6.504;2023-07-13T07:15:09;6.63;;;2.13;;
52057;SDS011;38063;53.210;6.504;2023-07-13T07:17:35;5.90;;;1.67;;
52057;SDS011;38063;53.210;6.504;2023-07-13T07:20:01;4.70;;;1.65;;
52057;SDS011;38063;53.210;6.504;2023-07-13T07:22:28;9.50;;;1.95;;
52057;SDS011;38063;53.210;6.504;2023-07-13T07:24:55;5.57;;;1.83;;
52057;SDS011;38063;53.210;6.504;2023-07-13T07:27:21;4.28;;;1.45;;
52057;SDS011;38063;53.210;6.504;2023-07-13T07:29:47;4.43;;;1.50;;
52057;SDS011;38063;53.210;6.504;2023-07-13T07:32:13;6.28;;;1.80;;
52057;SDS011;38063;53.210;6.504;2023-07-13T07:34:39;7.65;;;2.10;;
52057;SDS011;38063;53.210;6.504;2023-07-13T07:37:05;6.18;;;1.52;;
52057;SDS011;38063;53.210;6.504;2023-07-13T07:39:31;3.35;;;1.30;;
52057;SDS011;38063;53.210;6.504;2023-07-13T07:41:57;6.53;;;2.03;;
52057;SDS011;38063;53.210;6.504;2023-07-13T07:44:22;5.90;;;1.55;;
52057;SDS011;38063;53.210;6.504;2023-07-13T07:46:48;4.85;;;1.52;;
52057;SDS011;38063;53.210;6.504;2023-07-13T07:49:14;4.07;;;1.40;;
52057;SDS011;38063;53.210;6.504;2023-07-13T07:51:40;6.85;;;2.00;;
52057;SDS011;38063;53.210;6.504;2023-07-13T07:54:06;6.13;;;1.90;;
52057;SDS011;38063;53.210;6.504;2023-07-13T07:56:32;4.07;;;2.13;;
52057;SDS011;38063;53.210;6.504;2023-07-13T07:58:57;7.97;;;1.70;;
52057;SDS011;38063;53.210;6.504;2023-07-13T08:01:23;4.55;;;2.05;;
52057;SDS011;38063;53.210;6.504;2023-07-13T08:03:49;4.50;;;1.90;;
52057;SDS011;38063;53.210;6.504;2023-07-13T08:06:15;4.38;;;1.50;;
52057;SDS011;38063;53.210;6.504;2023-07-13T08:08:41;4.15;;;1.35;;
52057;SDS011;38063;53.210;6.504;2023-07-13T08:11:07;3.92;;;1.20;;
52057;SDS011;38063;53.210;6.504;2023-07-13T08:13:33;3.28;;;1.45;;
52057;SDS011;38063;53.210;6.504;2023-07-13T08:15:59;1.60;;;1.00;;
52057;SDS011;38063;53.210;6.504;2023-07-13T08:18:25;5.43;;;1.40;;
52057;SDS011;38063;53.210;6.504;2023-07-13T08:20:53;4.82;;;1.30;;
52057;SDS011;38063;53.210;6.504;2023-07-13T08:23:21;5.68;;;1.67;;
52057;SDS011;38063;53.210;6.504;2023-07-13T08:25:51;6.13;;;1.52;;
52057;SDS011;38063;53.210;6.504;2023-07-13T08:28:18;5.13;;;1.70;;
52057;SDS011;38063;53.210;6.504;2023-07-13T08:30:45;5.20;;;1.85;;
52057;SDS011;38063;53.210;6.504;2023-07-13T08:33:17;5.95;;;1.88;;
52057;SDS011;38063;53.210;6.504;2023-07-13T08:35:47;7.20;;;2.40;;
52057;SDS011;38063;53.210;6.504;2023-07-13T08:38:14;7.85;;;2.20;;
52057;SDS011;38063;53.210;6.504;2023-07-13T08:40:40;11.15;;;2.30;;
52057;SDS011;38063;53.210;6.504;2023-07-13T08:43:09;11.63;;;2.38;;
52057;SDS011;38063;53.210;6.504;2023-07-13T08:48:41;6.85;;;1.90;;
52057;SDS011;38063;53.210;6.504;2023-07-13T08:54:10;5.43;;;1.85;;
52057;SDS011;38063;53.210;6.504;2023-07-13T08:56:37;5.03;;;1.88;;
52057;SDS011;38063;53.210;6.504;2023-07-13T08:59:13;6.82;;;2.20;;
52057;SDS011;38063;53.210;6.504;2023-07-13T09:04:18;6.22;;;1.80;;
52057;SDS011;38063;53.210;6.504;2023-07-13T09:15:30;3.85;;;1.70;;
52057;SDS011;38063;53.210;6.504;2023-07-13T09:17:57;4.82;;;1.70;;
52057;SDS011;38063;53.210;6.504;2023-07-13T09:20:42;5.95;;;1.75;;
52057;SDS011;38063;53.210;6.504;2023-07-13T09:23:17;6.00;;;2.20;;
52057;SDS011;38063;53.210;6.504;2023-07-13T09:25:47;6.63;;;2.03;;
52057;SDS011;38063;53.210;6.504;2023-07-13T09:28:22;3.60;;;1.50;;
52057;SDS011;38063;53.210;6.504;2023-07-13T09:30:58;7.22;;;1.77;;
52057;SDS011;38063;53.210;6.504;2023-07-13T09:33:29;6.28;;;1.70;;
52057;SDS011;38063;53.210;6.504;2023-07-13T09:35:56;4.90;;;1.48;;
52057;SDS011;38063;53.210;6.504;2023-07-13T09:38:24;5.50;;;1.60;;
52057;SDS011;38063;53.210;6.504;2023-07-13T09:41:03;5.63;;;1.80;;
52057;SDS011;38063;53.210;6.504;2023-07-13T09:43:35;4.38;;;1.90;;
52057;SDS011;38063;53.210;6.504;2023-07-13T09:46:02;6.15;;;1.83;;
52057;SDS011;38063;53.210;6.504;2023-07-13T09:48:33;5.10;;;1.25;;
52057;SDS011;38063;53.210;6.504;2023-07-13T09:51:06;3.90;;;1.50;;
52057;SDS011;38063;53.210;6.504;2023-07-13T09:53:39;4.63;;;1.58;;
52057;SDS011;38063;53.210;6.504;2023-07-13T09:56:29;6.03;;;1.42;;
52057;SDS011;38063;53.210;6.504;2023-07-13T09:58:55;6.15;;;1.50;;
52057;SDS011;38063;53.210;6.504;2023-07-13T10:01:38;3.50;;;1.35;;
52057;SDS011;38063;53.210;6.504;2023-07-13T10:04:13;7.15;;;1.30;;
52057;SDS011;38063;53.210;6.504;2023-07-13T10:06:43;2.55;;;1.23;;
52057;SDS011;38063;53.210;6.504;2023-07-13T10:09:10;2.78;;;0.93;;
52057;SDS011;38063;53.210;6.504;2023-07-13T10:11:39;2.45;;;1.05;;
52057;SDS011;38063;53.210;6.504;2023-07-13T10:16:40;3.08;;;1.00;;
52057;SDS011;38063;53.210;6.504;2023-07-13T10:19:12;3.30;;;1.08;;
52057;SDS011;38063;53.210;6.504;2023-07-13T10:21:53;1.88;;;1.08;;
52057;SDS011;38063;53.210;6.504;2023-07-13T10:24:22;3.38;;;1.00;;
52057;SDS011;38063;53.210;6.504;2023-07-13T10:32:21;5.32;;;1.17;;
52057;SDS011;38063;53.210;6.504;2023-07-13T10:34:49;2.97;;;1.08;;
52057;SDS011;38063;53.210;6.504;2023-07-13T10:37:23;4.40;;;1.13;;
52057;SDS011;38063;53.210;6.504;2023-07-13T10:39:52;4.03;;;0.88;;
52057;SDS011;38063;53.210;6.504;2023-07-13T10:42:27;2.53;;;0.80;;
52057;SDS011;38063;53.210;6.504;2023-07-13T10:44:57;4.13;;;1.25;;
52057;SDS011;38063;53.210;6.504;2023-07-13T10:47:23;5.63;;;0.90;;
52057;SDS011;38063;53.210;6.504;2023-07-13T10:49:50;3.63;;;1.00;;
52057;SDS011;38063;53.210;6.504;2023-07-13T10:52:40;3.00;;;0.85;;
52057;SDS011;38063;53.210;6.504;2023-07-13T10:55:33;3.10;;;0.80;;
52057;SDS011;38063;53.210;6.504;2023-07-13T11:01:09;4.25;;;1.00;;
52057;SDS011;38063;53.210;6.504;2023-07-13T11:06:13;3.55;;;1.13;;
52057;SDS011;38063;53.210;6.504;2023-07-13T11:14:01;6.22;;;1.00;;
52057;SDS011;38063;53.210;6.504;2023-07-13T11:16:45;3.13;;;1.13;;
52057;SDS011;38063;53.210;6.504;2023-07-13T11:22:02;5.03;;;1.15;;
52057;SDS011;38063;53.210;6.504;2023-07-13T11:27:38;3.67;;;1.20;;
52057;SDS011;38063;53.210;6.504;2023-07-13T11:32:49;6.57;;;1.58;;
52057;SDS011;38063;53.210;6.504;2023-07-13T11:35:23;7.65;;;1.38;;
52057;SDS011;38063;53.210;6.504;2023-07-13T11:37:52;3.83;;;1.30;;
52057;SDS011;38063;53.210;6.504;2023-07-13T11:40:18;5.90;;;1.40;;
52057;SDS011;38063;53.210;6.504;2023-07-13T11:42:46;7.88;;;1.20;;
52057;SDS011;38063;53.210;6.504;2023-07-13T11:45:19;3.83;;;1.20;;
52057;SDS011;38063;53.210;6.504;2023-07-13T11:47:49;3.05;;;1.10;;
52057;SDS011;38063;53.210;6.504;2023-07-13T11:50:22;3.70;;;0.75;;
52057;SDS011;38063;53.210;6.504;2023-07-13T11:52:50;5.05;;;1.00;;
52057;SDS011;38063;53.210;6.504;2023-07-13T11:55:19;9.25;;;3.25;;
52057;SDS011;38063;53.210;6.504;2023-07-13T12:00:21;5.85;;;1.35;;
52057;SDS011;38063;53.210;6.504;2023-07-13T12:02:52;6.55;;;1.48;;
52057;SDS011;38063;53.210;6.504;2023-07-13T12:05:21;2.90;;;1.10;;
52057;SDS011;38063;53.210;6.504;2023-07-13T12:07:48;4.13;;;1.40;;
52057;SDS011;38063;53.210;6.504;2023-07-13T12:10:19;1.95;;;1.15;;
52057;SDS011;38063;53.210;6.504;2023-07-13T12:12:53;6.05;;;1.67;;
52057;SDS011;38063;53.210;6.504;2023-07-13T12:15:34;6.78;;;1.38;;
52057;SDS011;38063;53.210;6.504;2023-07-13T12:18:16;5.63;;;1.33;;
52057;SDS011;38063;53.210;6.504;2023-07-13T12:20:45;4.57;;;1.15;;
52057;SDS011;38063;53.210;6.504;2023-07-13T12:23:31;2.67;;;1.35;;
52057;SDS011;38063;53.210;6.504;2023-07-13T12:25:58;4.82;;;1.38;;
52057;SDS011;38063;53.210;6.504;2023-07-13T12:28:31;6.82;;;1.35;;
52057;SDS011;38063;53.210;6.504;2023-07-13T12:33:32;9.70;;;1.58;;
52057;SDS011;38063;53.210;6.504;2023-07-13T12:36:03;3.50;;;1.13;;
52057;SDS011;38063;53.210;6.504;2023-07-13T12:38:31;4.20;;;1.17;;
52057;SDS011;38063;53.210;6.504;2023-07-13T12:40:57;3.90;;;1.30;;
52057;SDS011;38063;53.210;6.504;2023-07-13T12:43:24;5.30;;;1.35;;
52057;SDS011;38063;53.210;6.504;2023-07-13T12:48:26;2.55;;;1.00;;
52057;SDS011;38063;53.210;6.504;2023-07-13T12:50:52;5.57;;;1.25;;
52057;SDS011;38063;53.210;6.504;2023-07-13T12:53:23;2.67;;;1.27;;
52057;SDS011;38063;53.210;6.504;2023-07-13T12:55:57;4.13;;;1.23;;
52057;SDS011;38063;53.210;6.504;2023-07-13T12:58:32;3.38;;;1.40;;
52057;SDS011;38063;53.210;6.504;2023-07-13T13:01:01;5.90;;;1.50;;
52057;SDS011;38063;53.210;6.504;2023-07-13T13:03:33;5.95;;;1.70;;
52057;SDS011;38063;53.210;6.504;2023-07-13T13:08:47;7.10;;;1.60;;
52057;SDS011;38063;53.210;6.504;2023-07-13T13:11:15;3.22;;;1.20;;
52057;SDS011;38063;53.210;6.504;2023-07-13T13:13:41;4.72;;;1.58;;
52057;SDS011;38063;53.210;6.504;2023-07-13T13:16:09;5.82;;;1.63;;
52057;SDS011;38063;53.210;6.504;2023-07-13T13:18:39;5.70;;;1.60;;
52057;SDS011;38063;53.210;6.504;2023-07-13T13:21:05;4.82;;;1.60;;
52057;SDS011;38063;53.210;6.504;2023-07-13T13:23:30;4.15;;;1.33;;
52057;SDS011;38063;53.210;6.504;2023-07-13T13:25:56;2.78;;;1.08;;
52057;SDS011;38063;53.210;6.504;2023-07-13T13:28:23;5.70;;;1.50;;
52057;SDS011;38063;53.210;6.504;2023-07-13T13:30:49;3.40;;;1.42;;
52057;SDS011;38063;53.210;6.504;2023-07-13T13:33:17;5.95;;;1.40;;
52057;SDS011;38063;53.210;6.504;2023-07-13T13:35:44;6.65;;;1.38;;
52057;SDS011;38063;53.210;6.504;2023-07-13T13:38:13;5.22;;;1.65;;
52057;SDS011;38063;53.210;6.504;2023-07-13T13:40:40;5.32;;;1.45;;
52057;SDS011;38063;53.210;6.504;2023-07-13T13:43:14;5.22;;;2.08;;
52057;SDS011;38063;53.210;6.504;2023-07-13T13:45:42;7.53;;;1.83;;
52057;SDS011;38063;53.210;6.504;2023-07-13T13:48:13;3.97;;;1.50;;
52057;SDS011;38063;53.210;6.504;2023-07-13T13:50:43;6.35;;;1.50;;
52057;SDS011;38063;53.210;6.504;2023-07-13T13:53:12;4.72;;;1.40;;
52057;SDS011;38063;53.210;6.504;2023-07-13T13:55:38;5.85;;;1.60;;
52057;SDS011;38063;53.210;6.504;2023-07-13T13:58:09;6.38;;;2.22;;
52057;SDS011;38063;53.210;6.504;2023-07-13T14:00:36;5.43;;;1.38;;
52057;SDS011;38063;53.210;6.504;2023-07-13T14:03:03;8.25;;;1.90;;
52057;SDS011;38063;53.210;6.504;2023-07-13T14:05:29;5.63;;;1.50;;
52057;SDS011;38063;53.210;6.504;2023-07-13T14:07:55;5.47;;;1.70;;
52057;SDS011;38063;53.210;6.504;2023-07-13T14:10:24;6.25;;;1.80;;
52057;SDS011;38063;53.210;6.504;2023-07-13T14:12:53;6.68;;;1.50;;
52057;SDS011;38063;53.210;6.504;2023-07-13T14:15:23;6.45;;;1.60;;
52057;SDS011;38063;53.210;6.504;2023-07-13T14:17:53;3.92;;;1.35;;
52057;SDS011;38063;53.210;6.504;2023-07-13T14:20:21;7.90;;;1.40;;
52057;SDS011;38063;53.210;6.504;2023-07-13T14:22:49;3.92;;;1.70;;
52057;SDS011;38063;53.210;6.504;2023-07-13T14:25:16;5.60;;;1.50;;
52057;SDS011;38063;53.210;6.504;2023-07-13T14:27:43;5.15;;;1.52;;
52057;SDS011;38063;53.210;6.504;2023-07-13T14:30:12;6.70;;;1.27;;
52057;SDS011;38063;53.210;6.504;2023-07-13T14:32:42;3.03;;;1.40;;
52057;SDS011;38063;53.210;6.504;2023-07-13T14:35:13;4.45;;;1.48;;
52057;SDS011;38063;53.210;6.504;2023-07-13T14:37:39;6.85;;;1.60;;
52057;SDS011;38063;53.210;6.504;2023-07-13T14:40:29;2.72;;;1.25;;
52057;SDS011;38063;53.210;6.504;2023-07-13T14:42:56;4.53;;;1.38;;
52057;SDS011;38063;53.210;6.504;2023-07-13T14:45:22;6.38;;;2.03;;
52057;SDS011;38063;53.210;6.504;2023-07-13T14:47:48;4.35;;;1.55;;
52057;SDS011;38063;53.210;6.504;2023-07-13T14:50:22;4.05;;;1.50;;
52057;SDS011;38063;53.210;6.504;2023-07-13T14:52:54;8.90;;;1.92;;
52057;SDS011;38063;53.210;6.504;2023-07-13T14:55:22;8.30;;;1.85;;
52057;SDS011;38063;53.210;6.504;2023-07-13T14:57:51;7.28;;;1.77;;
52057;SDS011;38063;53.210;6.504;2023-07-13T15:00:21;4.97;;;1.30;;
52057;SDS011;38063;53.210;6.504;2023-07-13T15:02:52;4.93;;;1.70;;
52057;SDS011;38063;53.210;6.504;2023-07-13T15:05:21;8.75;;;1.55;;
52057;SDS011;38063;53.210;6.504;2023-07-13T15:07:49;5.32;;;1.40;;
52057;SDS011;38063;53.210;6.504;2023-07-13T15:10:20;8.30;;;1.50;;
52057;SDS011;38063;53.210;6.504;2023-07-13T15:12:50;4.13;;;1.83;;
52057;SDS011;38063;53.210;6.504;2023-07-13T15:15:17;6.35;;;1.38;;
52057;SDS011;38063;53.210;6.504;2023-07-13T15:17:43;6.30;;;1.67;;
52057;SDS011;38063;53.210;6.504;2023-07-13T15:22:55;6.60;;;1.70;;
52057;SDS011;38063;53.210;6.504;2023-07-13T15:25:23;6.18;;;1.67;;
52057;SDS011;38063;53.210;6.504;2023-07-13T15:27:50;9.63;;;2.35;;
52057;SDS011;38063;53.210;6.504;2023-07-13T15:30:17;5.65;;;1.92;;
52057;SDS011;38063;53.210;6.504;2023-07-13T15:32:44;5.00;;;1.73;;
52057;SDS011;38063;53.210;6.504;2023-07-13T15:35:14;5.45;;;1.40;;
52057;SDS011;38063;53.210;6.504;2023-07-13T15:37:41;6.93;;;1.92;;
52057;SDS011;38063;53.210;6.504;2023-07-13T15:40:07;6.63;;;1.70;;
52057;SDS011;38063;53.210;6.504;2023-07-13T15:42:34;8.25;;;2.17;;
52057;SDS011;38063;53.210;6.504;2023-07-13T15:45:01;7.65;;;1.80;;
52057;SDS011;38063;53.210;6.504;2023-07-13T15:47:27;5.10;;;1.90;;
52057;SDS011;38063;53.210;6.504;2023-07-13T15:49:53;4.45;;;1.50;;